sensor_id;sensor_type;location;lat;lon;timestamp;temperature;humidity
6293;DHT22;3179;54.350;10.102;2023-05-20T00:02:14;14.20;98.30
6293;DHT22;3179;54.350;10.102;2023-05-20T00:04:41;14.20;98.30
6293;DHT22;3179;54.350;10.102;2023-05-20T00:07:08;14.10;98.40
6293;DHT22;3179;54.350;10.102;2023-05-20T00:09:37;14.10;98.40
6293;DHT22;3179;54.350;10.102;2023-05-20T00:12:05;14.10;98.50
6293;DHT22;3179;54.350;10.102;2023-05-20T00:14:33;14.10;98.50
6293;DHT22;3179;54.350;10.102;2023-05-20T00:17:00;14.00;98.60
6293;DHT22;3179;54.350;10.102;2023-05-20T00:19:27;14.00;98.60
6293;DHT22;3179;54.350;10.102;2023-05-20T00:21:53;14.00;98.60
6293;DHT22;3179;54.350;10.102;2023-05-20T00:24:22;13.90;98.60
6293;DHT22;3179;54.350;10.102;2023-05-20T00:26:48;13.90;98.60
6293;DHT22;3179;54.350;10.102;2023-05-20T00:29:15;13.90;98.60
6293;DHT22;3179;54.350;10.102;2023-05-20T00:31:43;13.90;98.60
6293;DHT22;3179;54.350;10.102;2023-05-20T00:34:10;13.80;98.70
6293;DHT22;3179;54.350;10.102;2023-05-20T00:36:37;13.80;98.70
6293;DHT22;3179;54.350;10.102;2023-05-20T00:39:04;13.80;98.70
6293;DHT22;3179;54.350;10.102;2023-05-20T00:41:31;13.70;98.70
6293;DHT22;3179;54.350;10.102;2023-05-20T00:43:58;13.70;98.70
6293;DHT22;3179;54.350;10.102;2023-05-20T00:46:25;13.70;98.70
6293;DHT22;3179;54.350;10.102;2023-05-20T00:48:54;13.70;98.80
6293;DHT22;3179;54.350;10.102;2023-05-20T00:51:21;13.60;98.80
6293;DHT22;3179;54.350;10.102;2023-05-20T00:53:48;13.60;98.80
6293;DHT22;3179;54.350;10.102;2023-05-20T00:56:15;13.60;98.80
6293;DHT22;3179;54.350;10.102;2023-05-20T00:58:44;13.50;98.80
6293;DHT22;3179;54.350;10.102;2023-05-20T01:01:12;13.50;98.90
6293;DHT22;3179;54.350;10.102;2023-05-20T01:03:39;13.50;98.90
6293;DHT22;3179;54.350;10.102;2023-05-20T01:06:07;13.50;98.90
6293;DHT22;3179;54.350;10.102;2023-05-20T01:08:34;13.50;98.90
6293;DHT22;3179;54.350;10.102;2023-05-20T01:11:05;13.50;99.00
6293;DHT22;3179;54.350;10.102;2023-05-20T01:13:38;13.40;99.00
6293;DHT22;3179;54.350;10.102;2023-05-20T01:16:06;13.40;99.10
6293;DHT22;3179;54.350;10.102;2023-05-20T01:18:34;13.40;99.20
6293;DHT22;3179;54.350;10.102;2023-05-20T01:21:02;13.40;99.20
6293;DHT22;3179;54.350;10.102;2023-05-20T01:23:33;13.40;99.20
6293;DHT22;3179;54.350;10.102;2023-05-20T01:26:00;13.40;99.20
6293;DHT22;3179;54.350;10.102;2023-05-20T01:28:27;13.30;99.10
6293;DHT22;3179;54.350;10.102;2023-05-20T01:30:58;13.30;99.20
6293;DHT22;3179;54.350;10.102;2023-05-20T01:33:28;13.30;99.20
6293;DHT22;3179;54.350;10.102;2023-05-20T01:35:55;13.30;99.20
6293;DHT22;3179;54.350;10.102;2023-05-20T01:38:23;13.30;99.20
6293;DHT22;3179;54.350;10.102;2023-05-20T01:40:52;13.20;99.20
6293;DHT22;3179;54.350;10.102;2023-05-20T01:43:20;13.20;99.20
6293;DHT22;3179;54.350;10.102;2023-05-20T01:45:47;13.10;99.60
6293;DHT22;3179;54.350;10.102;2023-05-20T01:48:14;13.10;99.30
6293;DHT22;3179;54.350;10.102;2023-05-20T01:50:53;13.10;99.30
6293;DHT22;3179;54.350;10.102;2023-05-20T01:53:19;13.10;99.30
6293;DHT22;3179;54.350;10.102;2023-05-20T01:55:46;13.10;99.30
6293;DHT22;3179;54.350;10.102;2023-05-20T01:58:13;13.00;99.20
6293;DHT22;3179;54.350;10.102;2023-05-20T02:00:40;13.00;99.20
6293;DHT22;3179;54.350;10.102;2023-05-20T02:03:06;13.00;99.20
6293;DHT22;3179;54.350;10.102;2023-05-20T02:05:33;13.00;99.20
6293;DHT22;3179;54.350;10.102;2023-05-20T02:08:01;13.00;99.20
6293;DHT22;3179;54.350;10.102;2023-05-20T02:10:28;13.00;99.20
6293;DHT22;3179;54.350;10.102;2023-05-20T02:12:55;13.00;99.20
6293;DHT22;3179;54.350;10.102;2023-05-20T02:15:21;12.90;99.10
6293;DHT22;3179;54.350;10.102;2023-05-20T02:17:48;12.90;99.10
6293;DHT22;3179;54.350;10.102;2023-05-20T02:20:15;12.90;99.20
6293;DHT22;3179;54.350;10.102;2023-05-20T02:22:42;12.90;99.20
6293;DHT22;3179;54.350;10.102;2023-05-20T02:25:10;12.80;99.20
6293;DHT22;3179;54.350;10.102;2023-05-20T02:27:37;12.80;99.30
6293;DHT22;3179;54.350;10.102;2023-05-20T02:30:06;12.90;99.40
6293;DHT22;3179;54.350;10.102;2023-05-20T02:32:33;12.80;99.40
6293;DHT22;3179;54.350;10.102;2023-05-20T02:35:00;12.90;99.50
6293;DHT22;3179;54.350;10.102;2023-05-20T02:37:27;12.90;99.70
6293;DHT22;3179;54.350;10.102;2023-05-20T02:39:53;12.90;99.70
6293;DHT22;3179;54.350;10.102;2023-05-20T02:42:22;12.90;99.70
6293;DHT22;3179;54.350;10.102;2023-05-20T02:44:49;12.90;99.80
6293;DHT22;3179;54.350;10.102;2023-05-20T02:47:17;12.90;99.90
6293;DHT22;3179;54.350;10.102;2023-05-20T02:49:44;12.90;99.90
6293;DHT22;3179;54.350;10.102;2023-05-20T02:52:11;12.80;99.90
6293;DHT22;3179;54.350;10.102;2023-05-20T02:54:37;12.90;99.90
6293;DHT22;3179;54.350;10.102;2023-05-20T02:57:04;12.90;99.90
6293;DHT22;3179;54.350;10.102;2023-05-20T02:59:33;12.80;99.90
6293;DHT22;3179;54.350;10.102;2023-05-20T03:02:00;12.80;99.90
6293;DHT22;3179;54.350;10.102;2023-05-20T03:04:27;12.80;99.90
6293;DHT22;3179;54.350;10.102;2023-05-20T03:06:54;12.80;99.90
6293;DHT22;3179;54.350;10.102;2023-05-20T03:09:22;12.90;99.90
6293;DHT22;3179;54.350;10.102;2023-05-20T03:11:49;12.80;99.90
6293;DHT22;3179;54.350;10.102;2023-05-20T03:14:16;12.80;99.90
6293;DHT22;3179;54.350;10.102;2023-05-20T03:16:44;12.80;99.90
6293;DHT22;3179;54.350;10.102;2023-05-20T03:19:11;12.80;99.90
6293;DHT22;3179;54.350;10.102;2023-05-20T03:21:37;12.80;99.90
6293;DHT22;3179;54.350;10.102;2023-05-20T03:24:04;12.80;99.80
6293;DHT22;3179;54.350;10.102;2023-05-20T03:26:31;12.90;99.80
6293;DHT22;3179;54.350;10.102;2023-05-20T03:29:02;12.90;99.70
6293;DHT22;3179;54.350;10.102;2023-05-20T03:31:28;13.00;99.50
6293;DHT22;3179;54.350;10.102;2023-05-20T03:33:56;13.00;99.50
6293;DHT22;3179;54.350;10.102;2023-05-20T03:36:23;13.10;99.40
6293;DHT22;3179;54.350;10.102;2023-05-20T03:38:50;13.00;99.50
6293;DHT22;3179;54.350;10.102;2023-05-20T03:41:17;13.10;99.60
6293;DHT22;3179;54.350;10.102;2023-05-20T03:43:43;13.10;99.80
6293;DHT22;3179;54.350;10.102;2023-05-20T03:46:10;13.00;99.80
6293;DHT22;3179;54.350;10.102;2023-05-20T03:48:37;13.00;99.90
6293;DHT22;3179;54.350;10.102;2023-05-20T03:51:05;13.00;99.80
6293;DHT22;3179;54.350;10.102;2023-05-20T03:53:32;13.00;99.70
6293;DHT22;3179;54.350;10.102;2023-05-20T03:55:59;13.10;99.60
6293;DHT22;3179;54.350;10.102;2023-05-20T03:58:26;13.10;99.60
6293;DHT22;3179;54.350;10.102;2023-05-20T04:00:54;13.10;99.40
6293;DHT22;3179;54.350;10.102;2023-05-20T04:03:20;13.10;99.40
6293;DHT22;3179;54.350;10.102;2023-05-20T04:05:48;13.10;99.50
6293;DHT22;3179;54.350;10.102;2023-05-20T04:08:16;13.10;99.50
6293;DHT22;3179;54.350;10.102;2023-05-20T04:10:43;13.10;99.50
6293;DHT22;3179;54.350;10.102;2023-05-20T04:13:10;13.10;99.50
6293;DHT22;3179;54.350;10.102;2023-05-20T04:15:37;13.10;99.30
6293;DHT22;3179;54.350;10.102;2023-05-20T04:18:04;13.10;99.30
6293;DHT22;3179;54.350;10.102;2023-05-20T04:20:31;13.20;99.40
6293;DHT22;3179;54.350;10.102;2023-05-20T04:22:58;13.20;99.20
6293;DHT22;3179;54.350;10.102;2023-05-20T04:25:26;13.20;99.20
6293;DHT22;3179;54.350;10.102;2023-05-20T04:27:53;13.20;99.60
6293;DHT22;3179;54.350;10.102;2023-05-20T04:30:21;13.20;99.30
6293;DHT22;3179;54.350;10.102;2023-05-20T04:32:52;13.20;99.50
6293;DHT22;3179;54.350;10.102;2023-05-20T04:35:19;13.20;99.50
6293;DHT22;3179;54.350;10.102;2023-05-20T04:37:46;13.30;99.40
6293;DHT22;3179;54.350;10.102;2023-05-20T04:40:13;13.20;99.40
6293;DHT22;3179;54.350;10.102;2023-05-20T04:42:42;13.20;99.40
6293;DHT22;3179;54.350;10.102;2023-05-20T04:45:10;13.20;99.40
6293;DHT22;3179;54.350;10.102;2023-05-20T04:47:37;13.20;99.40
6293;DHT22;3179;54.350;10.102;2023-05-20T04:50:05;13.20;99.40
6293;DHT22;3179;54.350;10.102;2023-05-20T04:52:35;13.20;99.60
6293;DHT22;3179;54.350;10.102;2023-05-20T04:55:02;13.30;99.40
6293;DHT22;3179;54.350;10.102;2023-05-20T04:57:29;13.30;99.60
6293;DHT22;3179;54.350;10.102;2023-05-20T05:00:00;13.30;99.60
6293;DHT22;3179;54.350;10.102;2023-05-20T05:02:26;13.30;99.60
6293;DHT22;3179;54.350;10.102;2023-05-20T05:04:53;13.40;99.80
6293;DHT22;3179;54.350;10.102;2023-05-20T05:07:20;13.30;99.60
6293;DHT22;3179;54.350;10.102;2023-05-20T05:09:47;13.40;99.90
6293;DHT22;3179;54.350;10.102;2023-05-20T05:12:14;13.40;99.90
6293;DHT22;3179;54.350;10.102;2023-05-20T05:14:40;13.40;99.90
6293;DHT22;3179;54.350;10.102;2023-05-20T05:17:09;13.40;99.90
6293;DHT22;3179;54.350;10.102;2023-05-20T05:19:35;13.40;99.90
6293;DHT22;3179;54.350;10.102;2023-05-20T05:22:02;13.40;99.90
6293;DHT22;3179;54.350;10.102;2023-05-20T05:24:29;13.40;99.90
6293;DHT22;3179;54.350;10.102;2023-05-20T05:26:56;13.40;99.90
6293;DHT22;3179;54.350;10.102;2023-05-20T05:29:23;13.40;99.90
6293;DHT22;3179;54.350;10.102;2023-05-20T05:31:49;13.40;99.90
6293;DHT22;3179;54.350;10.102;2023-05-20T05:34:18;13.40;99.90
6293;DHT22;3179;54.350;10.102;2023-05-20T05:36:44;13.40;99.90
6293;DHT22;3179;54.350;10.102;2023-05-20T05:39:11;13.40;99.90
6293;DHT22;3179;54.350;10.102;2023-05-20T05:41:38;13.50;99.90
6293;DHT22;3179;54.350;10.102;2023-05-20T05:44:04;13.50;99.90
6293;DHT22;3179;54.350;10.102;2023-05-20T05:46:31;13.60;99.90
6293;DHT22;3179;54.350;10.102;2023-05-20T05:48:58;13.60;99.90
6293;DHT22;3179;54.350;10.102;2023-05-20T05:51:26;13.60;99.90
6293;DHT22;3179;54.350;10.102;2023-05-20T05:53:53;13.70;99.90
6293;DHT22;3179;54.350;10.102;2023-05-20T05:56:20;13.70;99.90
6293;DHT22;3179;54.350;10.102;2023-05-20T05:58:47;13.70;99.90
6293;DHT22;3179;54.350;10.102;2023-05-20T06:01:13;13.70;99.90
6293;DHT22;3179;54.350;10.102;2023-05-20T06:03:40;13.80;99.90
6293;DHT22;3179;54.350;10.102;2023-05-20T06:06:07;13.80;99.90
6293;DHT22;3179;54.350;10.102;2023-05-20T06:08:35;13.80;99.90
6293;DHT22;3179;54.350;10.102;2023-05-20T06:11:02;13.80;99.90
6293;DHT22;3179;54.350;10.102;2023-05-20T06:13:28;13.80;99.90
6293;DHT22;3179;54.350;10.102;2023-05-20T06:15:55;13.90;99.90
6293;DHT22;3179;54.350;10.102;2023-05-20T06:18:22;13.90;99.90
6293;DHT22;3179;54.350;10.102;2023-05-20T06:20:53;13.90;99.90
6293;DHT22;3179;54.350;10.102;2023-05-20T06:23:21;13.90;99.90
6293;DHT22;3179;54.350;10.102;2023-05-20T06:25:49;13.90;99.90
6293;DHT22;3179;54.350;10.102;2023-05-20T06:28:16;14.00;99.90
6293;DHT22;3179;54.350;10.102;2023-05-20T06:30:43;14.00;99.90
6293;DHT22;3179;54.350;10.102;2023-05-20T06:33:09;14.00;99.90
6293;DHT22;3179;54.350;10.102;2023-05-20T06:35:37;14.10;99.90
6293;DHT22;3179;54.350;10.102;2023-05-20T06:38:03;14.10;99.90
6293;DHT22;3179;54.350;10.102;2023-05-20T06:40:30;14.10;99.90
6293;DHT22;3179;54.350;10.102;2023-05-20T06:42:58;14.10;99.90
6293;DHT22;3179;54.350;10.102;2023-05-20T06:45:25;14.20;99.90
6293;DHT22;3179;54.350;10.102;2023-05-20T06:47:52;14.20;99.90
6293;DHT22;3179;54.350;10.102;2023-05-20T06:50:19;14.20;99.90
6293;DHT22;3179;54.350;10.102;2023-05-20T06:52:45;14.20;99.90
6293;DHT22;3179;54.350;10.102;2023-05-20T06:55:12;14.30;99.90
6293;DHT22;3179;54.350;10.102;2023-05-20T06:57:39;14.30;99.90
6293;DHT22;3179;54.350;10.102;2023-05-20T07:00:08;14.40;99.90
6293;DHT22;3179;54.350;10.102;2023-05-20T07:02:36;14.40;99.90
6293;DHT22;3179;54.350;10.102;2023-05-20T07:05:03;14.40;99.90
6293;DHT22;3179;54.350;10.102;2023-05-20T07:07:30;14.50;99.90
6293;DHT22;3179;54.350;10.102;2023-05-20T07:09:57;14.50;99.90
6293;DHT22;3179;54.350;10.102;2023-05-20T07:12:24;14.50;99.90
6293;DHT22;3179;54.350;10.102;2023-05-20T07:14:51;14.60;99.90
6293;DHT22;3179;54.350;10.102;2023-05-20T07:17:19;14.70;99.90
6293;DHT22;3179;54.350;10.102;2023-05-20T07:19:46;14.70;99.90
6293;DHT22;3179;54.350;10.102;2023-05-20T07:22:12;14.70;99.90
6293;DHT22;3179;54.350;10.102;2023-05-20T07:24:39;14.80;99.90
6293;DHT22;3179;54.350;10.102;2023-05-20T07:27:06;14.80;99.90
6293;DHT22;3179;54.350;10.102;2023-05-20T07:29:33;14.90;99.90
6293;DHT22;3179;54.350;10.102;2023-05-20T07:32:00;14.90;99.90
6293;DHT22;3179;54.350;10.102;2023-05-20T07:34:28;14.90;99.90
6293;DHT22;3179;54.350;10.102;2023-05-20T07:36:56;15.00;99.90
6293;DHT22;3179;54.350;10.102;2023-05-20T07:39:23;15.00;99.90
6293;DHT22;3179;54.350;10.102;2023-05-20T07:41:50;15.10;99.90
6293;DHT22;3179;54.350;10.102;2023-05-20T07:44:17;15.10;99.90
6293;DHT22;3179;54.350;10.102;2023-05-20T07:46:46;15.10;99.90
6293;DHT22;3179;54.350;10.102;2023-05-20T07:49:12;15.20;99.90
6293;DHT22;3179;54.350;10.102;2023-05-20T07:51:41;15.30;99.90
6293;DHT22;3179;54.350;10.102;2023-05-20T07:54:07;15.30;99.90
6293;DHT22;3179;54.350;10.102;2023-05-20T07:56:34;15.30;99.90
6293;DHT22;3179;54.350;10.102;2023-05-20T07:59:01;15.40;99.90
6293;DHT22;3179;54.350;10.102;2023-05-20T08:01:28;15.40;99.90
6293;DHT22;3179;54.350;10.102;2023-05-20T08:03:55;15.50;99.90
6293;DHT22;3179;54.350;10.102;2023-05-20T08:06:22;15.50;99.90
6293;DHT22;3179;54.350;10.102;2023-05-20T08:08:51;15.50;99.90
6293;DHT22;3179;54.350;10.102;2023-05-20T08:11:18;15.60;99.90
6293;DHT22;3179;54.350;10.102;2023-05-20T08:13:45;15.60;99.90
6293;DHT22;3179;54.350;10.102;2023-05-20T08:16:12;15.60;99.90
6293;DHT22;3179;54.350;10.102;2023-05-20T08:18:39;15.60;99.90
6293;DHT22;3179;54.350;10.102;2023-05-20T08:21:06;15.60;99.90
6293;DHT22;3179;54.350;10.102;2023-05-20T08:23:33;15.70;99.90
6293;DHT22;3179;54.350;10.102;2023-05-20T08:26:01;15.70;99.90
6293;DHT22;3179;54.350;10.102;2023-05-20T08:28:29;15.70;99.90
6293;DHT22;3179;54.350;10.102;2023-05-20T08:30:56;15.80;99.90
6293;DHT22;3179;54.350;10.102;2023-05-20T08:33:23;15.80;99.90
6293;DHT22;3179;54.350;10.102;2023-05-20T08:35:50;15.80;99.90
6293;DHT22;3179;54.350;10.102;2023-05-20T08:38:17;15.90;99.90
6293;DHT22;3179;54.350;10.102;2023-05-20T08:40:43;15.90;99.90
6293;DHT22;3179;54.350;10.102;2023-05-20T08:43:11;15.90;99.90
6293;DHT22;3179;54.350;10.102;2023-05-20T08:45:38;16.00;99.90
6293;DHT22;3179;54.350;10.102;2023-05-20T08:48:05;16.10;99.90
6293;DHT22;3179;54.350;10.102;2023-05-20T08:50:32;16.10;99.90
6293;DHT22;3179;54.350;10.102;2023-05-20T08:52:59;16.20;99.90
6293;DHT22;3179;54.350;10.102;2023-05-20T08:55:36;16.20;99.90
6293;DHT22;3179;54.350;10.102;2023-05-20T08:58:03;16.30;99.90
6293;DHT22;3179;54.350;10.102;2023-05-20T09:00:31;16.40;99.90
6293;DHT22;3179;54.350;10.102;2023-05-20T09:02:58;16.40;99.90
6293;DHT22;3179;54.350;10.102;2023-05-20T09:05:25;16.50;99.90
6293;DHT22;3179;54.350;10.102;2023-05-20T09:08:02;16.40;99.90
6293;DHT22;3179;54.350;10.102;2023-05-20T09:10:29;16.40;99.90
6293;DHT22;3179;54.350;10.102;2023-05-20T09:12:56;16.40;99.90
6293;DHT22;3179;54.350;10.102;2023-05-20T09:15:23;16.50;99.90
6293;DHT22;3179;54.350;10.102;2023-05-20T09:17:52;16.50;99.90
6293;DHT22;3179;54.350;10.102;2023-05-20T09:20:21;16.60;99.90
6293;DHT22;3179;54.350;10.102;2023-05-20T09:22:50;16.60;99.90
6293;DHT22;3179;54.350;10.102;2023-05-20T09:25:18;16.70;99.90
6293;DHT22;3179;54.350;10.102;2023-05-20T09:27:45;16.90;99.90
6293;DHT22;3179;54.350;10.102;2023-05-20T09:30:12;17.00;99.90
6293;DHT22;3179;54.350;10.102;2023-05-20T09:32:39;17.00;99.90
6293;DHT22;3179;54.350;10.102;2023-05-20T09:35:07;16.90;99.90
6293;DHT22;3179;54.350;10.102;2023-05-20T09:37:40;16.80;99.70
6293;DHT22;3179;54.350;10.102;2023-05-20T09:40:10;16.80;99.90
6293;DHT22;3179;54.350;10.102;2023-05-20T09:42:40;16.90;99.90
6293;DHT22;3179;54.350;10.102;2023-05-20T09:45:08;17.00;99.90
6293;DHT22;3179;54.350;10.102;2023-05-20T09:47:36;17.00;99.90
6293;DHT22;3179;54.350;10.102;2023-05-20T09:50:08;17.00;99.70
6293;DHT22;3179;54.350;10.102;2023-05-20T09:52:36;17.00;99.30
6293;DHT22;3179;54.350;10.102;2023-05-20T09:55:04;17.00;99.00
6293;DHT22;3179;54.350;10.102;2023-05-20T09:57:33;16.90;99.10
6293;DHT22;3179;54.350;10.102;2023-05-20T10:00:00;17.00;98.70
6293;DHT22;3179;54.350;10.102;2023-05-20T10:02:29;17.00;98.50
6293;DHT22;3179;54.350;10.102;2023-05-20T10:04:57;17.10;98.30
6293;DHT22;3179;54.350;10.102;2023-05-20T10:10:31;17.20;98.20
6293;DHT22;3179;54.350;10.102;2023-05-20T10:13:11;17.30;98.20
6293;DHT22;3179;54.350;10.102;2023-05-20T10:15:49;17.30;97.80
6293;DHT22;3179;54.350;10.102;2023-05-20T10:18:29;17.30;97.60
6293;DHT22;3179;54.350;10.102;2023-05-20T10:20:57;17.30;97.60
6293;DHT22;3179;54.350;10.102;2023-05-20T10:23:27;17.30;97.30
6293;DHT22;3179;54.350;10.102;2023-05-20T10:25:55;17.30;97.50
6293;DHT22;3179;54.350;10.102;2023-05-20T10:28:30;17.30;97.70
6293;DHT22;3179;54.350;10.102;2023-05-20T10:30:57;17.30;97.80
6293;DHT22;3179;54.350;10.102;2023-05-20T10:33:25;17.30;97.70
6293;DHT22;3179;54.350;10.102;2023-05-20T10:35:53;17.30;97.70
6293;DHT22;3179;54.350;10.102;2023-05-20T10:38:20;17.40;97.70
6293;DHT22;3179;54.350;10.102;2023-05-20T10:40:48;17.40;97.60
6293;DHT22;3179;54.350;10.102;2023-05-20T10:43:25;17.40;97.50
6293;DHT22;3179;54.350;10.102;2023-05-20T10:45:53;17.40;97.40
6293;DHT22;3179;54.350;10.102;2023-05-20T10:48:22;17.40;97.40
6293;DHT22;3179;54.350;10.102;2023-05-20T10:50:50;17.40;97.20
6293;DHT22;3179;54.350;10.102;2023-05-20T10:53:17;17.50;97.30
6293;DHT22;3179;54.350;10.102;2023-05-20T10:55:49;17.60;97.40
6293;DHT22;3179;54.350;10.102;2023-05-20T10:58:17;17.60;96.90
6293;DHT22;3179;54.350;10.102;2023-05-20T11:00:46;17.70;97.20
6293;DHT22;3179;54.350;10.102;2023-05-20T11:03:14;17.70;96.90
6293;DHT22;3179;54.350;10.102;2023-05-20T11:05:41;17.70;96.90
6293;DHT22;3179;54.350;10.102;2023-05-20T11:08:10;17.70;97.10
6293;DHT22;3179;54.350;10.102;2023-05-20T11:10:37;17.80;97.20
6293;DHT22;3179;54.350;10.102;2023-05-20T11:13:05;17.90;97.10
6293;DHT22;3179;54.350;10.102;2023-05-20T11:15:34;17.90;97.00
6293;DHT22;3179;54.350;10.102;2023-05-20T11:18:02;18.00;97.20
6293;DHT22;3179;54.350;10.102;2023-05-20T11:20:30;18.00;97.00
6293;DHT22;3179;54.350;10.102;2023-05-20T11:23:00;18.00;97.00
6293;DHT22;3179;54.350;10.102;2023-05-20T11:25:27;18.00;97.00
6293;DHT22;3179;54.350;10.102;2023-05-20T11:27:54;18.10;97.10
6293;DHT22;3179;54.350;10.102;2023-05-20T11:30:22;18.10;96.90
6293;DHT22;3179;54.350;10.102;2023-05-20T11:32:56;18.10;97.00
6293;DHT22;3179;54.350;10.102;2023-05-20T11:35:24;18.10;96.50
6293;DHT22;3179;54.350;10.102;2023-05-20T11:37:56;18.10;96.90
6293;DHT22;3179;54.350;10.102;2023-05-20T11:40:24;18.20;96.80
6293;DHT22;3179;54.350;10.102;2023-05-20T11:42:53;18.30;97.10
6293;DHT22;3179;54.350;10.102;2023-05-20T11:45:21;18.50;96.90
6293;DHT22;3179;54.350;10.102;2023-05-20T11:48:01;18.60;96.90
6293;DHT22;3179;54.350;10.102;2023-05-20T11:50:32;18.80;96.80
6293;DHT22;3179;54.350;10.102;2023-05-20T11:53:02;18.90;96.80
6293;DHT22;3179;54.350;10.102;2023-05-20T11:55:30;18.90;96.80
6293;DHT22;3179;54.350;10.102;2023-05-20T11:57:57;19.00;96.70
6293;DHT22;3179;54.350;10.102;2023-05-20T12:00:26;19.10;96.80
6293;DHT22;3179;54.350;10.102;2023-05-20T12:02:53;19.20;96.90
6293;DHT22;3179;54.350;10.102;2023-05-20T12:05:20;19.20;96.90
6293;DHT22;3179;54.350;10.102;2023-05-20T12:07:46;19.30;96.70
6293;DHT22;3179;54.350;10.102;2023-05-20T12:10:13;19.40;96.80
6293;DHT22;3179;54.350;10.102;2023-05-20T12:12:41;19.50;96.70
6293;DHT22;3179;54.350;10.102;2023-05-20T12:15:09;19.60;96.80
6293;DHT22;3179;54.350;10.102;2023-05-20T12:17:46;19.40;96.30
6293;DHT22;3179;54.350;10.102;2023-05-20T12:20:14;19.40;96.60
6293;DHT22;3179;54.350;10.102;2023-05-20T12:22:42;19.40;97.10
6293;DHT22;3179;54.350;10.102;2023-05-20T12:25:11;19.50;96.70
6293;DHT22;3179;54.350;10.102;2023-05-20T12:27:39;19.60;96.60
6293;DHT22;3179;54.350;10.102;2023-05-20T12:30:07;19.70;96.80
6293;DHT22;3179;54.350;10.102;2023-05-20T12:32:35;19.80;96.80
6293;DHT22;3179;54.350;10.102;2023-05-20T12:35:04;20.00;96.90
6293;DHT22;3179;54.350;10.102;2023-05-20T12:37:31;20.10;96.50
6293;DHT22;3179;54.350;10.102;2023-05-20T12:39:58;20.20;96.50
6293;DHT22;3179;54.350;10.102;2023-05-20T12:42:25;20.20;96.30
6293;DHT22;3179;54.350;10.102;2023-05-20T12:44:51;20.20;96.00
6293;DHT22;3179;54.350;10.102;2023-05-20T12:47:19;20.20;96.00
6293;DHT22;3179;54.350;10.102;2023-05-20T12:49:46;20.20;96.30
6293;DHT22;3179;54.350;10.102;2023-05-20T12:52:14;20.40;96.00
6293;DHT22;3179;54.350;10.102;2023-05-20T12:54:41;20.60;96.20
6293;DHT22;3179;54.350;10.102;2023-05-20T12:57:08;20.60;95.70
6293;DHT22;3179;54.350;10.102;2023-05-20T12:59:35;20.70;95.80
6293;DHT22;3179;54.350;10.102;2023-05-20T13:02:02;20.70;95.80
6293;DHT22;3179;54.350;10.102;2023-05-20T13:04:28;20.60;95.50
6293;DHT22;3179;54.350;10.102;2023-05-20T13:06:56;20.50;95.40
6293;DHT22;3179;54.350;10.102;2023-05-20T13:09:25;20.40;95.30
6293;DHT22;3179;54.350;10.102;2023-05-20T13:11:51;20.30;95.50
6293;DHT22;3179;54.350;10.102;2023-05-20T13:14:18;20.20;95.20
6293;DHT22;3179;54.350;10.102;2023-05-20T13:16:46;20.00;95.40
6293;DHT22;3179;54.350;10.102;2023-05-20T13:19:12;20.10;95.80
6293;DHT22;3179;54.350;10.102;2023-05-20T13:21:39;20.10;95.50
6293;DHT22;3179;54.350;10.102;2023-05-20T13:24:07;20.20;95.40
6293;DHT22;3179;54.350;10.102;2023-05-20T13:26:36;20.30;95.60
6293;DHT22;3179;54.350;10.102;2023-05-20T13:29:02;20.40;95.60
6293;DHT22;3179;54.350;10.102;2023-05-20T13:31:29;20.40;95.20
6293;DHT22;3179;54.350;10.102;2023-05-20T13:33:56;20.30;95.30
6293;DHT22;3179;54.350;10.102;2023-05-20T13:36:24;20.20;95.20
6293;DHT22;3179;54.350;10.102;2023-05-20T13:38:52;20.40;95.40
6293;DHT22;3179;54.350;10.102;2023-05-20T13:41:18;20.50;95.20
6293;DHT22;3179;54.350;10.102;2023-05-20T13:43:47;20.50;95.10
6293;DHT22;3179;54.350;10.102;2023-05-20T13:46:15;20.90;94.70
6293;DHT22;3179;54.350;10.102;2023-05-20T13:48:42;21.20;94.50
6293;DHT22;3179;54.350;10.102;2023-05-20T13:51:09;21.30;94.30
6293;DHT22;3179;54.350;10.102;2023-05-20T13:53:35;21.40;93.60
6293;DHT22;3179;54.350;10.102;2023-05-20T13:56:02;21.50;93.60
6293;DHT22;3179;54.350;10.102;2023-05-20T13:58:29;21.50;93.50
6293;DHT22;3179;54.350;10.102;2023-05-20T14:00:58;21.30;93.40
6293;DHT22;3179;54.350;10.102;2023-05-20T14:03:24;21.00;93.40
6293;DHT22;3179;54.350;10.102;2023-05-20T14:05:51;20.80;93.10
6293;DHT22;3179;54.350;10.102;2023-05-20T14:08:19;20.80;93.60
6293;DHT22;3179;54.350;10.102;2023-05-20T14:10:45;20.90;93.30
6293;DHT22;3179;54.350;10.102;2023-05-20T14:13:12;20.90;93.30
6293;DHT22;3179;54.350;10.102;2023-05-20T14:15:39;20.90;93.10
6293;DHT22;3179;54.350;10.102;2023-05-20T14:18:07;21.30;92.70
6293;DHT22;3179;54.350;10.102;2023-05-20T14:20:34;21.70;92.40
6293;DHT22;3179;54.350;10.102;2023-05-20T14:23:01;22.10;92.20
6293;DHT22;3179;54.350;10.102;2023-05-20T14:25:28;22.40;92.00
6293;DHT22;3179;54.350;10.102;2023-05-20T14:27:54;22.60;91.70
6293;DHT22;3179;54.350;10.102;2023-05-20T14:30:21;22.90;91.00
6293;DHT22;3179;54.350;10.102;2023-05-20T14:32:49;23.10;91.40
6293;DHT22;3179;54.350;10.102;2023-05-20T14:35:17;23.40;91.40
6293;DHT22;3179;54.350;10.102;2023-05-20T14:37:44;23.60;90.90
6293;DHT22;3179;54.350;10.102;2023-05-20T14:40:11;23.80;91.00
6293;DHT22;3179;54.350;10.102;2023-05-20T14:42:38;23.90;90.30
6293;DHT22;3179;54.350;10.102;2023-05-20T14:45:06;24.00;90.20
6293;DHT22;3179;54.350;10.102;2023-05-20T14:47:33;24.10;90.10
6293;DHT22;3179;54.350;10.102;2023-05-20T14:49:59;24.10;89.30
6293;DHT22;3179;54.350;10.102;2023-05-20T14:52:28;23.90;88.40
6293;DHT22;3179;54.350;10.102;2023-05-20T14:54:54;24.10;88.30
6293;DHT22;3179;54.350;10.102;2023-05-20T14:57:22;24.10;88.00
6293;DHT22;3179;54.350;10.102;2023-05-20T14:59:48;24.20;87.90
6293;DHT22;3179;54.350;10.102;2023-05-20T15:02:17;24.20;87.80
6293;DHT22;3179;54.350;10.102;2023-05-20T15:04:44;24.20;88.00
6293;DHT22;3179;54.350;10.102;2023-05-20T15:07:12;24.00;87.50
6293;DHT22;3179;54.350;10.102;2023-05-20T15:09:40;23.80;87.30
6293;DHT22;3179;54.350;10.102;2023-05-20T15:12:08;23.50;87.10
6293;DHT22;3179;54.350;10.102;2023-05-20T15:14:35;23.40;87.70
6293;DHT22;3179;54.350;10.102;2023-05-20T15:17:02;23.30;88.00
6293;DHT22;3179;54.350;10.102;2023-05-20T15:19:30;23.50;87.60
6293;DHT22;3179;54.350;10.102;2023-05-20T15:21:57;23.80;86.50
6293;DHT22;3179;54.350;10.102;2023-05-20T15:24:23;24.00;85.70
6293;DHT22;3179;54.350;10.102;2023-05-20T15:26:52;24.20;85.60
6293;DHT22;3179;54.350;10.102;2023-05-20T15:29:19;24.50;85.50
6293;DHT22;3179;54.350;10.102;2023-05-20T15:31:46;24.70;86.10
6293;DHT22;3179;54.350;10.102;2023-05-20T15:34:13;24.80;84.90
6293;DHT22;3179;54.350;10.102;2023-05-20T15:36:39;24.90;84.20
6293;DHT22;3179;54.350;10.102;2023-05-20T15:39:06;24.90;84.80
6293;DHT22;3179;54.350;10.102;2023-05-20T15:41:34;24.90;84.40
6293;DHT22;3179;54.350;10.102;2023-05-20T15:44:03;25.00;84.30
6293;DHT22;3179;54.350;10.102;2023-05-20T15:46:30;25.00;82.90
6293;DHT22;3179;54.350;10.102;2023-05-20T15:48:57;24.90;84.40
6293;DHT22;3179;54.350;10.102;2023-05-20T15:51:24;24.80;84.40